createdAt,value
2018-02-14T00:01:03.256Z,9.93
2018-02-14T00:03:31.644Z,9.60
2018-02-14T00:05:59.966Z,9.68
2018-02-14T00:08:29.041Z,9.32
2018-02-14T00:10:57.411Z,9.15
2018-02-14T00:13:26.680Z,8.25
2018-02-14T00:15:55.421Z,9.40
2018-02-14T00:18:23.796Z,8.15
2018-02-14T00:20:52.493Z,8.30
2018-02-14T00:23:20.872Z,8.32
2018-02-14T00:25:49.248Z,9.32
2018-02-14T00:28:17.547Z,8.45
2018-02-14T00:30:46.903Z,8.35
2018-02-14T00:33:16.006Z,7.85
2018-02-14T00:35:45.241Z,7.95
2018-02-14T00:38:13.573Z,9.00
2018-02-14T00:40:42.879Z,8.88
2018-02-14T00:43:12.083Z,10.10
2018-02-14T00:45:40.611Z,8.80
2018-02-14T00:48:09.917Z,7.90
2018-02-14T00:50:38.231Z,9.15
2018-02-14T00:53:07.863Z,9.85
2018-02-14T00:55:37.216Z,8.57
2018-02-14T00:58:05.820Z,9.13
2018-02-14T01:00:34.670Z,9.23
2018-02-14T01:03:02.995Z,9.48
2018-02-14T01:05:31.347Z,8.25
2018-02-14T01:07:59.713Z,8.80
2018-02-14T01:10:28.123Z,9.32
2018-02-14T01:12:57.430Z,8.77
2018-02-14T01:15:27.037Z,8.93
2018-02-14T01:17:55.712Z,8.75
2018-02-14T01:20:29.653Z,8.80
2018-02-14T01:22:58.755Z,9.20
2018-02-14T01:25:27.096Z,8.45
2018-02-14T01:27:55.450Z,9.93
2018-02-14T01:30:23.761Z,9.50
2018-02-14T01:32:52.080Z,9.40
2018-02-14T01:35:20.915Z,8.73
2018-02-14T01:37:49.248Z,9.35
2018-02-14T01:40:17.591Z,9.82
2018-02-14T01:42:46.241Z,9.75
2018-02-14T01:45:14.608Z,9.75
2018-02-14T01:47:42.948Z,10.45
2018-02-14T01:50:12.098Z,11.35
2018-02-14T01:52:40.443Z,10.20
2018-02-14T01:55:08.799Z,10.70
2018-02-14T01:57:38.419Z,10.50
2018-02-14T02:00:07.501Z,10.70
2018-02-14T02:02:35.838Z,12.55
2018-02-14T02:05:04.254Z,11.82
2018-02-14T02:07:32.581Z,10.80
2018-02-14T02:10:00.932Z,9.65
2018-02-14T02:12:30.084Z,9.73
2018-02-14T02:14:58.502Z,10.10
2018-02-14T02:17:26.860Z,11.90
2018-02-14T02:19:55.566Z,11.10
2018-02-14T02:22:23.895Z,10.60
2018-02-14T02:24:52.210Z,8.40
2018-02-14T02:27:20.552Z,9.88
2018-02-14T02:29:48.904Z,11.07
2018-02-14T02:32:17.401Z,11.23
2018-02-14T02:34:45.749Z,12.25
2018-02-14T02:37:14.965Z,10.43
2018-02-14T02:42:55.721Z,9.88
2018-02-14T02:45:24.065Z,10.05
2018-02-14T02:47:52.401Z,11.15
2018-02-14T02:50:20.960Z,9.73
2018-02-14T02:52:49.539Z,9.00
2018-02-14T02:55:17.837Z,8.60
2018-02-14T02:57:47.272Z,9.60
2018-02-14T03:00:15.980Z,9.25
2018-02-14T03:02:44.610Z,10.20
2018-02-14T03:05:13.136Z,9.25
2018-02-14T03:07:41.623Z,9.48
2018-02-14T03:10:10.236Z,10.07
2018-02-14T03:12:38.596Z,8.27
2018-02-14T03:15:07.057Z,8.90
2018-02-14T03:17:35.519Z,9.10
2018-02-14T03:20:03.849Z,9.80
2018-02-14T03:22:32.453Z,9.20
2018-02-14T03:25:00.783Z,9.52
2018-02-14T03:27:29.115Z,10.23
2018-02-14T03:29:58.354Z,9.18
2018-02-14T03:32:26.812Z,9.27
2018-02-14T03:34:55.255Z,9.48
2018-02-14T03:37:23.600Z,9.07
2018-02-14T03:39:51.924Z,10.20
2018-02-14T03:42:20.250Z,9.80
2018-02-14T03:44:49.216Z,9.80
2018-02-14T03:47:17.508Z,9.55
2018-02-14T03:49:45.846Z,10.00
2018-02-14T03:52:14.227Z,9.55
2018-02-14T03:54:42.550Z,9.00
2018-02-14T03:57:10.858Z,8.77
2018-02-14T03:59:39.234Z,9.60
2018-02-14T04:02:07.583Z,9.60
2018-02-14T04:04:35.905Z,9.00
2018-02-14T04:07:04.628Z,9.15
2018-02-14T04:09:33.722Z,8.95
2018-02-14T04:12:02.824Z,8.43
2018-02-14T04:14:31.962Z,9.25
2018-02-14T04:17:00.304Z,9.45
2018-02-14T04:19:28.630Z,9.35
2018-02-14T04:21:56.961Z,9.77
2018-02-14T04:24:26.059Z,8.88
2018-02-14T04:26:55.126Z,10.18
2018-02-14T04:29:23.648Z,9.25
2018-02-14T04:31:52.043Z,10.20
2018-02-14T04:34:20.346Z,8.50
2018-02-14T04:36:48.665Z,9.23
2018-02-14T04:39:17.029Z,8.95
2018-02-14T04:41:46.129Z,8.65
2018-02-14T04:44:14.654Z,9.20
2018-02-14T04:46:42.999Z,9.23
2018-02-14T04:49:12.103Z,8.40
2018-02-14T04:51:41.684Z,9.38
2018-02-14T04:54:10.013Z,9.00
2018-02-14T04:56:38.388Z,9.32
2018-02-14T04:59:06.750Z,9.43
2018-02-14T05:01:35.825Z,10.02
2018-02-14T05:04:04.153Z,9.73
2018-02-14T05:06:32.484Z,9.00
2018-02-14T05:09:01.559Z,9.75
2018-02-14T05:11:29.897Z,9.70
2018-02-14T05:13:58.336Z,9.13
2018-02-14T05:16:26.666Z,9.82
2018-02-14T05:18:55.045Z,9.77
2018-02-14T05:21:23.519Z,8.25
2018-02-14T05:23:51.845Z,8.90
2018-02-14T05:26:20.183Z,10.15
2018-02-14T05:28:48.543Z,10.65
2018-02-14T05:31:16.864Z,9.85
2018-02-14T05:33:45.957Z,9.20
2018-02-14T05:36:14.702Z,8.80
2018-02-14T05:38:43.047Z,9.40
2018-02-14T05:41:11.382Z,10.40
2018-02-14T05:43:39.713Z,10.10
2018-02-14T05:46:08.819Z,10.50
2018-02-14T05:48:37.923Z,10.32
2018-02-14T05:51:06.256Z,10.02
2018-02-14T05:53:34.633Z,10.82
2018-02-14T05:56:02.940Z,10.40
2018-02-14T05:58:31.487Z,10.00
2018-02-14T06:00:59.819Z,10.93
2018-02-14T06:03:28.128Z,9.90
2018-02-14T06:05:56.476Z,10.55
2018-02-14T06:08:25.584Z,11.23
2018-02-14T06:10:53.914Z,9.80
2018-02-14T06:13:22.275Z,9.90
2018-02-14T06:15:50.644Z,12.27
2018-02-14T06:18:18.965Z,11.40
2018-02-14T06:20:48.469Z,11.18
2018-02-14T06:23:16.793Z,11.60
2018-02-14T06:25:45.109Z,10.57
2018-02-14T06:28:13.479Z,10.70
2018-02-14T06:30:41.826Z,10.90
2018-02-14T06:33:10.148Z,11.38
2018-02-14T06:35:38.636Z,11.70
2018-02-14T06:38:06.986Z,10.98
2018-02-14T06:40:35.294Z,11.75
2018-02-14T06:43:03.936Z,11.90
2018-02-14T06:45:32.295Z,12.15
2018-02-14T06:48:00.640Z,12.00
2018-02-14T06:50:29.008Z,11.73
2018-02-14T06:52:57.349Z,12.82
2018-02-14T06:55:25.714Z,12.45
2018-02-14T06:57:54.028Z,12.82
2018-02-14T07:00:22.325Z,14.35
2018-02-14T07:02:50.676Z,14.07
2018-02-14T07:05:19.516Z,12.85
2018-02-14T07:07:47.897Z,13.70
2018-02-14T07:10:16.246Z,13.07
2018-02-14T07:12:44.593Z,12.95
2018-02-14T07:15:12.937Z,11.90
2018-02-14T07:17:42.049Z,10.68
2018-02-14T07:20:10.538Z,11.98
2018-02-14T07:22:39.069Z,11.70
2018-02-14T07:25:07.411Z,12.35
2018-02-14T07:27:36.292Z,13.15
2018-02-14T07:30:04.600Z,11.85
2018-02-14T07:32:32.925Z,12.55
2018-02-14T07:35:02.013Z,11.75
2018-02-14T07:37:31.130Z,13.23
2018-02-14T07:39:59.443Z,11.80
2018-02-14T07:42:28.043Z,13.18
2018-02-14T07:44:56.373Z,13.05
2018-02-14T07:47:24.684Z,13.25
2018-02-14T07:49:53.226Z,13.30
2018-02-14T07:52:21.556Z,13.50
2018-02-14T07:54:49.863Z,14.27
2018-02-14T07:57:18.960Z,14.73
2018-02-14T07:59:48.054Z,14.40
2018-02-14T08:02:17.171Z,14.13
2018-02-14T08:04:45.534Z,15.67
2018-02-14T08:07:13.868Z,13.23
2018-02-14T08:09:42.957Z,14.60
2018-02-14T08:12:11.856Z,16.40
2018-02-14T08:14:40.210Z,15.90
2018-02-14T08:17:08.550Z,14.20
2018-02-14T08:19:36.927Z,14.83
2018-02-14T08:22:05.287Z,15.13
2018-02-14T08:24:33.609Z,14.40
2018-02-14T08:27:01.991Z,14.77
2018-02-14T08:29:30.342Z,15.13
2018-02-14T08:31:58.667Z,14.10
2018-02-14T08:34:27.320Z,15.60
2018-02-14T08:36:55.784Z,15.03
2018-02-14T08:39:25.208Z,14.93
2018-02-14T08:41:54.304Z,14.90
2018-02-14T08:44:23.384Z,15.80
2018-02-14T08:46:51.720Z,15.60
2018-02-14T08:49:20.087Z,16.00
2018-02-14T08:51:48.415Z,14.63
2018-02-14T08:54:16.777Z,15.97
2018-02-14T08:56:45.490Z,15.30
2018-02-14T08:59:13.816Z,14.33
2018-02-14T09:01:42.131Z,13.97
2018-02-14T09:04:10.498Z,14.67
2018-02-14T09:06:38.861Z,14.37
2018-02-14T09:09:07.188Z,13.77
2018-02-14T09:11:36.284Z,13.60
2018-02-14T09:14:05.376Z,16.47
2018-02-14T09:16:34.466Z,14.90
2018-02-14T09:19:04.068Z,14.43
2018-02-14T09:21:32.487Z,14.60
2018-02-14T09:24:00.831Z,14.87
2018-02-14T09:26:29.214Z,14.20
2018-02-14T09:28:57.553Z,13.50
2018-02-14T09:31:25.905Z,14.03
2018-02-14T09:33:54.277Z,14.90
2018-02-14T09:36:22.605Z,14.13
2018-02-14T09:38:50.935Z,14.93
2018-02-14T09:41:19.380Z,15.17
2018-02-14T09:43:47.721Z,15.03
2018-02-14T09:46:16.198Z,13.53
2018-02-14T09:48:44.575Z,12.80
2018-02-14T09:51:12.911Z,13.20
2018-02-14T09:53:42.001Z,14.10
2018-02-14T09:56:11.108Z,13.77
2018-02-14T09:58:39.420Z,12.20
2018-02-14T10:01:07.776Z,12.87
2018-02-14T10:03:37.384Z,12.90
2018-02-14T10:06:05.723Z,11.77
2018-02-14T10:08:35.826Z,12.37
2018-02-14T10:11:04.145Z,12.30
2018-02-14T10:13:33.243Z,13.30
2018-02-14T10:16:02.427Z,12.00
2018-02-14T10:18:30.747Z,12.53
2018-02-14T10:20:59.061Z,12.70
2018-02-14T10:23:27.939Z,12.50
2018-02-14T10:25:56.258Z,12.93
2018-02-14T10:28:25.362Z,12.40
2018-02-14T10:30:54.986Z,11.83
2018-02-14T10:33:23.339Z,13.03
2018-02-14T10:35:51.683Z,12.03
2018-02-14T10:38:20.022Z,13.60
2018-02-14T10:40:48.379Z,11.53
2018-02-14T10:43:17.497Z,12.80
2018-02-14T10:45:47.105Z,12.50
2018-02-14T10:48:15.453Z,14.60
2018-02-14T10:50:43.833Z,13.50
2018-02-14T10:53:12.594Z,16.00
2018-02-14T10:55:40.983Z,16.43
2018-02-14T10:58:09.311Z,14.77
2018-02-14T11:00:43.208Z,15.33
2018-02-14T11:03:17.969Z,16.60
2018-02-14T11:08:54.324Z,16.43
2018-02-14T11:11:23.825Z,16.70
2018-02-14T11:13:52.928Z,18.03
2018-02-14T11:16:22.101Z,17.37
2018-02-14T11:18:50.705Z,16.97
2018-02-14T11:21:19.830Z,15.10
2018-02-14T11:23:48.210Z,16.80
2018-02-14T11:26:16.554Z,17.93
2018-02-14T11:28:45.691Z,16.93
2018-02-14T11:31:14.071Z,16.47
2018-02-14T11:33:42.720Z,18.20
2018-02-14T11:36:11.122Z,18.27
2018-02-14T11:38:39.470Z,18.00
2018-02-14T11:41:08.622Z,17.60
2018-02-14T11:43:36.991Z,16.50
2018-02-14T11:46:05.322Z,15.70
2018-02-14T11:48:33.689Z,14.43
2018-02-14T11:51:02.842Z,15.60
2018-02-14T11:53:31.427Z,14.63
2018-02-14T11:56:00.539Z,13.93
2018-02-14T11:58:28.860Z,13.87
2018-02-14T12:00:57.199Z,12.63
2018-02-14T12:03:25.587Z,15.33
2018-02-14T12:05:53.969Z,15.37
2018-02-14T12:08:22.526Z,15.67
2018-02-14T12:10:50.918Z,14.63
2018-02-14T12:13:19.366Z,14.67
2018-02-14T12:15:47.747Z,13.70
2018-02-14T12:18:16.734Z,14.43
2018-02-14T12:20:45.835Z,14.70
2018-02-14T12:23:14.967Z,14.27
2018-02-14T12:25:43.357Z,14.20
2018-02-14T12:28:11.699Z,14.60
2018-02-14T12:30:40.097Z,13.57
2018-02-14T12:33:08.957Z,13.83
2018-02-14T12:35:37.310Z,14.37
2018-02-14T12:38:06.441Z,14.30
2018-02-14T12:40:34.863Z,15.73
2018-02-14T12:43:03.189Z,15.50
2018-02-14T12:45:32.309Z,16.87
2018-02-14T12:48:00.700Z,16.80
2018-02-14T12:50:29.092Z,16.10
2018-02-14T12:52:57.457Z,16.70
2018-02-14T12:55:25.837Z,17.00
2018-02-14T12:57:54.165Z,18.10
2018-02-14T13:00:22.504Z,18.27
2018-02-14T13:02:51.338Z,18.43
2018-02-14T13:05:19.664Z,19.27
2018-02-14T13:07:48.009Z,17.73
2018-02-14T13:10:17.397Z,17.00
2018-02-14T13:12:46.491Z,18.43
2018-02-14T13:15:14.853Z,17.43
2018-02-14T13:17:43.206Z,16.60
2018-02-14T13:20:11.528Z,17.70
2018-02-14T13:22:40.673Z,17.63
2018-02-14T13:25:09.830Z,17.50
2018-02-14T13:27:38.960Z,17.73
2018-02-14T13:30:07.348Z,18.73
2018-02-14T13:32:35.726Z,18.00
2018-02-14T13:35:04.105Z,18.73
2018-02-14T13:37:32.481Z,18.07
2018-02-14T13:40:00.901Z,17.70
2018-02-14T13:42:29.239Z,18.33
2018-02-14T13:44:57.577Z,15.87
2018-02-14T13:47:27.240Z,16.77
2018-02-14T13:49:55.627Z,16.27
2018-02-14T13:52:24.024Z,16.77
2018-02-14T13:54:52.389Z,17.03
2018-02-14T13:57:20.744Z,17.00
2018-02-14T13:59:49.079Z,16.33
2018-02-14T14:02:17.553Z,14.90
2018-02-14T14:04:45.900Z,16.13
2018-02-14T14:07:14.281Z,15.70
2018-02-14T14:09:42.930Z,15.80
2018-02-14T14:12:11.282Z,16.20
2018-02-14T14:14:39.814Z,15.27
2018-02-14T14:17:08.194Z,15.30
2018-02-14T14:19:36.536Z,15.90
2018-02-14T14:22:05.663Z,15.07
2018-02-14T14:24:34.509Z,13.37
2018-02-14T14:27:02.853Z,16.07
2018-02-14T14:29:31.221Z,13.50
2018-02-14T14:31:59.840Z,15.30
2018-02-14T14:34:28.212Z,14.37
2018-02-14T14:36:56.548Z,14.70
2018-02-14T14:39:24.928Z,14.17
2018-02-14T14:41:53.295Z,15.33
2018-02-14T14:44:21.673Z,15.37
2018-02-14T14:46:50.024Z,16.83
2018-02-14T14:49:18.356Z,14.20
2018-02-14T14:51:46.703Z,16.30
2018-02-14T14:54:15.349Z,15.93
2018-02-14T14:56:45.298Z,15.70
2018-02-14T14:59:14.434Z,16.63
2018-02-14T15:01:43.068Z,16.53
2018-02-14T15:04:12.192Z,16.20
2018-02-14T15:06:40.523Z,17.20
2018-02-14T15:09:08.911Z,16.77
2018-02-14T15:11:37.322Z,15.70
2018-02-14T15:14:05.628Z,18.50
2018-02-14T15:16:34.493Z,17.17
2018-02-14T15:19:02.824Z,16.57
2018-02-14T15:21:31.133Z,17.13
2018-02-14T15:24:00.303Z,16.17
2018-02-14T15:26:28.667Z,17.90
2018-02-14T15:28:57.765Z,18.03
2018-02-14T15:31:26.131Z,17.30
2018-02-14T15:33:54.457Z,18.90
2018-02-14T15:36:22.789Z,17.90
2018-02-14T15:38:51.673Z,18.20
2018-02-14T15:41:20.119Z,17.80
2018-02-14T15:43:48.443Z,17.07
2018-02-14T15:46:16.863Z,17.83
2018-02-14T15:48:45.168Z,18.40
2018-02-14T15:51:13.466Z,18.30
2018-02-14T15:53:41.816Z,18.03
2018-02-14T15:56:10.896Z,17.00
2018-02-14T15:58:39.431Z,18.03
2018-02-14T16:01:08.144Z,19.00
2018-02-14T16:03:36.438Z,18.43
2018-02-14T16:06:04.769Z,19.00
2018-02-14T16:08:33.094Z,16.70
2018-02-14T16:11:01.433Z,17.77
2018-02-14T16:13:30.445Z,17.57
2018-02-14T16:15:59.252Z,16.03
2018-02-14T16:18:27.552Z,17.20
2018-02-14T16:20:55.925Z,15.70
2018-02-14T16:23:25.725Z,15.90
2018-02-14T16:25:54.070Z,14.90
2018-02-14T16:28:22.435Z,14.85
2018-02-14T16:30:50.807Z,16.95
2018-02-14T16:33:19.145Z,16.08
2018-02-14T16:35:48.251Z,16.37
2018-02-14T16:38:17.369Z,15.90
2018-02-14T16:40:45.764Z,15.75
2018-02-14T16:43:14.096Z,18.35
2018-02-14T16:45:43.522Z,17.90
2018-02-14T16:48:11.870Z,17.85
2018-02-14T16:50:40.223Z,16.62
2018-02-14T16:53:09.179Z,18.25
2018-02-14T16:55:37.557Z,18.20
2018-02-14T16:58:06.655Z,16.48
2018-02-14T17:00:35.029Z,17.37
2018-02-14T17:03:03.384Z,16.62
2018-02-14T17:05:31.718Z,16.95
2018-02-14T17:08:00.274Z,18.48
2018-02-14T17:10:28.610Z,17.30
2018-02-14T17:12:56.950Z,17.95
2018-02-14T17:15:25.311Z,19.40
2018-02-14T17:17:53.659Z,17.33
2018-02-14T17:20:22.021Z,18.87
2018-02-14T17:22:50.434Z,18.15
2018-02-14T17:25:18.757Z,18.25
2018-02-14T17:27:47.120Z,18.40
2018-02-14T17:30:16.184Z,18.35
2018-02-14T17:32:44.513Z,16.65
2018-02-14T17:35:12.872Z,17.80
2018-02-14T17:37:41.225Z,16.90
2018-02-14T17:40:09.557Z,17.83
2018-02-14T17:42:37.907Z,18.58
2018-02-14T17:45:06.265Z,16.40
2018-02-14T17:47:35.366Z,17.50
2018-02-14T17:50:03.724Z,18.45
2018-02-14T17:52:33.173Z,17.55
2018-02-14T17:55:01.812Z,18.60
2018-02-14T17:57:30.915Z,17.27
2018-02-14T18:00:00.091Z,18.85
2018-02-14T18:02:29.189Z,17.70
2018-02-14T18:04:57.532Z,18.33
2018-02-14T18:07:26.181Z,18.95
2018-02-14T18:09:54.545Z,18.58
2018-02-14T18:12:22.907Z,19.45
2018-02-14T18:14:51.642Z,19.27
2018-02-14T18:17:19.987Z,20.35
2018-02-14T18:19:48.525Z,17.90
2018-02-14T18:22:16.895Z,17.90
2018-02-14T18:24:45.228Z,17.80
2018-02-14T18:27:13.643Z,20.02
2018-02-14T18:29:42.017Z,19.10
2018-02-14T18:32:10.351Z,19.42
2018-02-14T18:34:38.717Z,18.90
2018-02-14T18:37:07.257Z,19.87
2018-02-14T18:39:36.357Z,20.23
2018-02-14T18:42:04.732Z,18.50
2018-02-14T18:44:33.353Z,18.58
2018-02-14T18:47:01.697Z,18.17
2018-02-14T18:49:30.134Z,17.25
2018-02-14T18:51:58.456Z,18.30
2018-02-14T18:54:27.543Z,17.27
2018-02-14T18:56:56.659Z,17.62
2018-02-14T18:59:25.825Z,17.05
2018-02-14T19:01:54.364Z,17.52
2018-02-14T19:04:22.695Z,16.33
2018-02-14T19:06:52.949Z,16.50
2018-02-14T19:09:21.269Z,16.90
2018-02-14T19:11:50.368Z,15.25
2018-02-14T19:14:18.850Z,17.00
2018-02-14T19:16:47.191Z,15.82
2018-02-14T19:19:15.622Z,15.90
2018-02-14T19:21:45.686Z,16.60
2018-02-14T19:24:14.058Z,15.63
2018-02-14T19:26:42.402Z,17.67
2018-02-14T19:29:11.589Z,15.63
2018-02-14T19:31:39.985Z,16.67
2018-02-14T19:34:08.313Z,16.20
2018-02-14T19:36:36.691Z,16.52
2018-02-14T19:39:05.036Z,16.37
2018-02-14T19:41:33.446Z,15.50
2018-02-14T19:44:02.092Z,16.62
2018-02-14T19:46:30.685Z,16.52
2018-02-14T19:48:59.118Z,16.65
2018-02-14T19:51:27.627Z,17.60
2018-02-14T19:53:55.979Z,15.98
2018-02-14T19:56:24.301Z,16.52
2018-02-14T19:58:53.085Z,17.42
2018-02-14T20:01:21.464Z,16.55
2018-02-14T20:03:50.635Z,15.90
2018-02-14T20:06:19.355Z,17.23
2018-02-14T20:08:47.718Z,16.00
2018-02-14T20:11:16.889Z,16.45
2018-02-14T20:13:45.292Z,17.75
2018-02-14T20:16:14.408Z,17.95
2018-02-14T20:18:42.893Z,18.20
2018-02-14T20:21:12.121Z,17.92
2018-02-14T20:23:40.623Z,17.67
2018-02-14T20:26:08.943Z,17.83
2018-02-14T20:28:38.265Z,19.90
2018-02-14T20:31:06.604Z,18.98
2018-02-14T20:33:34.932Z,17.65
2018-02-14T20:36:03.638Z,17.30
2018-02-14T20:38:31.937Z,16.23
2018-02-14T20:41:00.280Z,16.92
2018-02-14T20:43:30.070Z,17.90
2018-02-14T20:45:58.412Z,18.95
2018-02-14T20:48:26.858Z,18.55
2018-02-14T20:50:56.268Z,19.60
2018-02-14T20:53:24.602Z,18.70
2018-02-14T20:55:52.950Z,19.52
2018-02-14T20:58:21.291Z,19.42
2018-02-14T21:00:49.602Z,19.52
2018-02-14T21:03:17.953Z,18.95
2018-02-14T21:05:46.309Z,19.75
2018-02-14T21:08:14.679Z,18.73
2018-02-14T21:10:43.017Z,19.17
2018-02-14T21:13:11.472Z,19.17
2018-02-14T21:15:39.869Z,19.45
2018-02-14T21:18:08.178Z,17.75
2018-02-14T21:20:37.331Z,21.02
2018-02-14T21:23:05.691Z,20.58
2018-02-14T21:25:34.107Z,18.87
2018-02-14T21:28:02.470Z,19.83
2018-02-14T21:30:30.916Z,20.27
2018-02-14T21:32:59.239Z,18.80
2018-02-14T21:35:27.684Z,19.33
2018-02-14T21:37:55.993Z,17.70
2018-02-14T21:40:24.331Z,18.48
2018-02-14T21:42:52.708Z,19.92
2018-02-14T21:45:21.100Z,18.00
2018-02-14T21:47:49.428Z,17.73
2018-02-14T21:50:17.778Z,18.52
2018-02-14T21:52:46.144Z,18.10
2018-02-14T21:55:14.476Z,16.87
2018-02-14T21:57:43.200Z,18.23
2018-02-14T22:00:11.539Z,17.50
2018-02-14T22:02:39.867Z,17.00
2018-02-14T22:05:08.224Z,18.73
2018-02-14T22:07:37.314Z,18.98
2018-02-14T22:10:06.406Z,19.05
2018-02-14T22:12:35.537Z,17.20
2018-02-14T22:15:03.887Z,19.62
2018-02-14T22:17:32.256Z,18.35
2018-02-14T22:20:01.712Z,19.35
2018-02-14T22:22:30.056Z,17.67
2018-02-14T22:24:59.144Z,17.23
2018-02-14T22:27:28.288Z,17.52
2018-02-14T22:29:56.624Z,17.75
2018-02-14T22:32:24.941Z,16.60
2018-02-14T22:34:53.265Z,17.58
2018-02-14T22:37:22.334Z,18.83
2018-02-14T22:39:50.675Z,17.17
2018-02-14T22:42:19.109Z,17.33
2018-02-14T22:44:47.456Z,16.30
2018-02-14T22:47:15.825Z,17.67
2018-02-14T22:49:44.184Z,18.00
2018-02-14T22:52:12.523Z,16.62
2018-02-14T22:54:40.848Z,16.83
2018-02-14T22:57:09.646Z,17.08
2018-02-14T22:59:37.978Z,15.93
2018-02-14T23:02:07.061Z,15.77
2018-02-14T23:04:35.768Z,14.27
2018-02-14T23:07:04.843Z,15.18
2018-02-14T23:09:33.280Z,14.05
2018-02-14T23:12:01.628Z,14.15
2018-02-14T23:14:30.278Z,14.13
2018-02-14T23:16:58.672Z,14.00
2018-02-14T23:19:27.348Z,13.02
2018-02-14T23:21:55.693Z,14.45
2018-02-14T23:24:24.007Z,14.30
2018-02-14T23:26:52.720Z,15.40
2018-02-14T23:29:21.816Z,13.40
2018-02-14T23:31:51.307Z,14.57
2018-02-14T23:34:20.244Z,14.55
2018-02-14T23:36:48.739Z,15.45
2018-02-14T23:39:17.069Z,14.70
2018-02-14T23:41:46.243Z,15.32
2018-02-14T23:44:14.634Z,14.30
2018-02-14T23:46:42.992Z,14.95
2018-02-14T23:49:11.732Z,15.25
2018-02-14T23:51:40.060Z,15.50
2018-02-14T23:54:08.411Z,15.27
2018-02-14T23:56:36.769Z,15.60
2018-02-14T23:59:05.122Z,15.93
